sensor_id;sensor_type;location;lat;lon;timestamp;temperature;humidity
52415;DHT22;38340;52.964;6.086;2023-07-31T00:02:17;16.10;99.90
52415;DHT22;38340;52.964;6.086;2023-07-31T00:04:43;16.10;99.90
52415;DHT22;38340;52.964;6.086;2023-07-31T00:07:09;16.00;99.90
52415;DHT22;38340;52.964;6.086;2023-07-31T00:09:34;16.00;99.90
52415;DHT22;38340;52.964;6.086;2023-07-31T00:12:00;16.00;99.90
52415;DHT22;38340;52.964;6.086;2023-07-31T00:14:26;15.90;99.90
52415;DHT22;38340;52.964;6.086;2023-07-31T00:16:52;16.00;99.90
52415;DHT22;38340;52.964;6.086;2023-07-31T00:19:17;15.90;99.90
52415;DHT22;38340;52.964;6.086;2023-07-31T00:21:44;15.90;99.90
52415;DHT22;38340;52.964;6.086;2023-07-31T00:24:10;15.90;99.90
52415;DHT22;38340;52.964;6.086;2023-07-31T00:26:35;15.90;99.90
52415;DHT22;38340;52.964;6.086;2023-07-31T00:29:01;15.90;99.90
52415;DHT22;38340;52.964;6.086;2023-07-31T00:31:27;15.90;99.90
52415;DHT22;38340;52.964;6.086;2023-07-31T00:33:52;15.90;99.90
52415;DHT22;38340;52.964;6.086;2023-07-31T00:36:18;15.90;99.90
52415;DHT22;38340;52.964;6.086;2023-07-31T00:38:44;15.90;99.90
52415;DHT22;38340;52.964;6.086;2023-07-31T00:41:09;15.90;99.90
52415;DHT22;38340;52.964;6.086;2023-07-31T00:43:35;15.90;99.90
52415;DHT22;38340;52.964;6.086;2023-07-31T00:46:01;16.00;99.90
52415;DHT22;38340;52.964;6.086;2023-07-31T00:48:27;15.90;99.90
52415;DHT22;38340;52.964;6.086;2023-07-31T00:50:52;15.90;99.90
52415;DHT22;38340;52.964;6.086;2023-07-31T00:53:18;15.90;99.90
52415;DHT22;38340;52.964;6.086;2023-07-31T00:55:44;15.80;99.90
52415;DHT22;38340;52.964;6.086;2023-07-31T00:58:10;15.80;99.90
52415;DHT22;38340;52.964;6.086;2023-07-31T01:00:36;15.80;99.90
52415;DHT22;38340;52.964;6.086;2023-07-31T01:03:02;15.80;99.90
52415;DHT22;38340;52.964;6.086;2023-07-31T01:05:43;15.80;99.90
52415;DHT22;38340;52.964;6.086;2023-07-31T01:08:41;15.80;99.90
52415;DHT22;38340;52.964;6.086;2023-07-31T01:11:19;15.80;99.90
52415;DHT22;38340;52.964;6.086;2023-07-31T01:13:45;15.80;99.90
52415;DHT22;38340;52.964;6.086;2023-07-31T01:16:11;15.70;99.90
52415;DHT22;38340;52.964;6.086;2023-07-31T01:18:37;15.80;99.90
52415;DHT22;38340;52.964;6.086;2023-07-31T01:26:39;15.80;99.90
52415;DHT22;38340;52.964;6.086;2023-07-31T01:29:10;15.80;99.90
52415;DHT22;38340;52.964;6.086;2023-07-31T01:31:39;15.80;99.90
52415;DHT22;38340;52.964;6.086;2023-07-31T01:34:06;15.80;99.90
52415;DHT22;38340;52.964;6.086;2023-07-31T01:36:34;15.80;99.90
52415;DHT22;38340;52.964;6.086;2023-07-31T01:39:00;15.90;99.90
52415;DHT22;38340;52.964;6.086;2023-07-31T01:41:27;15.90;99.90
52415;DHT22;38340;52.964;6.086;2023-07-31T01:43:52;15.90;99.90
52415;DHT22;38340;52.964;6.086;2023-07-31T01:46:18;15.90;99.90
52415;DHT22;38340;52.964;6.086;2023-07-31T01:48:44;15.90;99.90
52415;DHT22;38340;52.964;6.086;2023-07-31T01:51:09;16.00;99.90
52415;DHT22;38340;52.964;6.086;2023-07-31T01:53:35;16.00;99.90
52415;DHT22;38340;52.964;6.086;2023-07-31T01:56:01;16.00;99.90
52415;DHT22;38340;52.964;6.086;2023-07-31T01:58:26;15.90;99.90
52415;DHT22;38340;52.964;6.086;2023-07-31T02:00:52;16.00;99.90
52415;DHT22;38340;52.964;6.086;2023-07-31T02:03:18;16.00;99.90
52415;DHT22;38340;52.964;6.086;2023-07-31T02:05:44;16.00;99.90
52415;DHT22;38340;52.964;6.086;2023-07-31T02:08:11;16.00;99.90
52415;DHT22;38340;52.964;6.086;2023-07-31T02:10:36;16.00;99.90
52415;DHT22;38340;52.964;6.086;2023-07-31T02:13:02;16.00;99.90
52415;DHT22;38340;52.964;6.086;2023-07-31T02:15:30;16.00;99.90
52415;DHT22;38340;52.964;6.086;2023-07-31T02:17:55;16.00;99.90
52415;DHT22;38340;52.964;6.086;2023-07-31T02:20:21;16.00;99.90
52415;DHT22;38340;52.964;6.086;2023-07-31T02:22:47;16.00;99.90
52415;DHT22;38340;52.964;6.086;2023-07-31T02:25:13;16.10;99.90
52415;DHT22;38340;52.964;6.086;2023-07-31T02:27:38;16.10;99.90
52415;DHT22;38340;52.964;6.086;2023-07-31T02:30:04;16.10;99.90
52415;DHT22;38340;52.964;6.086;2023-07-31T02:32:30;16.10;99.90
52415;DHT22;38340;52.964;6.086;2023-07-31T02:34:56;16.00;99.90
52415;DHT22;38340;52.964;6.086;2023-07-31T02:37:21;16.10;99.90
52415;DHT22;38340;52.964;6.086;2023-07-31T02:39:47;16.10;99.90
52415;DHT22;38340;52.964;6.086;2023-07-31T02:42:14;16.00;99.90
52415;DHT22;38340;52.964;6.086;2023-07-31T02:44:39;16.10;99.90
52415;DHT22;38340;52.964;6.086;2023-07-31T02:47:05;16.10;99.90
52415;DHT22;38340;52.964;6.086;2023-07-31T02:49:31;16.10;99.90
52415;DHT22;38340;52.964;6.086;2023-07-31T02:51:57;16.10;99.90
52415;DHT22;38340;52.964;6.086;2023-07-31T02:54:22;16.10;99.90
52415;DHT22;38340;52.964;6.086;2023-07-31T02:56:48;16.10;99.90
52415;DHT22;38340;52.964;6.086;2023-07-31T02:59:14;16.00;99.90
52415;DHT22;38340;52.964;6.086;2023-07-31T03:01:40;16.00;99.90
52415;DHT22;38340;52.964;6.086;2023-07-31T03:04:05;16.00;99.90
52415;DHT22;38340;52.964;6.086;2023-07-31T03:06:31;15.90;99.90
52415;DHT22;38340;52.964;6.086;2023-07-31T03:08:57;15.90;99.90
52415;DHT22;38340;52.964;6.086;2023-07-31T03:11:22;15.80;99.90
52415;DHT22;38340;52.964;6.086;2023-07-31T03:13:48;15.80;99.90
52415;DHT22;38340;52.964;6.086;2023-07-31T03:16:14;15.80;99.90
52415;DHT22;38340;52.964;6.086;2023-07-31T03:18:39;15.80;99.90
52415;DHT22;38340;52.964;6.086;2023-07-31T03:21:05;15.80;99.90
52415;DHT22;38340;52.964;6.086;2023-07-31T03:23:32;15.80;99.90
52415;DHT22;38340;52.964;6.086;2023-07-31T03:26:03;15.80;99.90
52415;DHT22;38340;52.964;6.086;2023-07-31T03:28:29;15.80;99.90
52415;DHT22;38340;52.964;6.086;2023-07-31T03:30:55;15.80;99.90
52415;DHT22;38340;52.964;6.086;2023-07-31T03:33:20;15.80;99.90
52415;DHT22;38340;52.964;6.086;2023-07-31T03:35:46;15.80;99.90
52415;DHT22;38340;52.964;6.086;2023-07-31T03:38:12;15.80;99.90
52415;DHT22;38340;52.964;6.086;2023-07-31T03:40:38;15.80;99.90
52415;DHT22;38340;52.964;6.086;2023-07-31T03:43:05;15.90;99.90
52415;DHT22;38340;52.964;6.086;2023-07-31T03:45:30;15.80;99.90
52415;DHT22;38340;52.964;6.086;2023-07-31T03:47:56;15.90;99.90
52415;DHT22;38340;52.964;6.086;2023-07-31T03:50:22;15.90;99.90
52415;DHT22;38340;52.964;6.086;2023-07-31T03:52:47;15.90;99.90
52415;DHT22;38340;52.964;6.086;2023-07-31T03:55:13;15.90;99.90
52415;DHT22;38340;52.964;6.086;2023-07-31T03:57:39;15.90;99.90
52415;DHT22;38340;52.964;6.086;2023-07-31T04:00:05;15.90;99.90
52415;DHT22;38340;52.964;6.086;2023-07-31T04:02:31;15.90;99.90
52415;DHT22;38340;52.964;6.086;2023-07-31T04:04:56;15.90;99.90
52415;DHT22;38340;52.964;6.086;2023-07-31T04:07:22;15.90;99.90
52415;DHT22;38340;52.964;6.086;2023-07-31T04:09:48;15.90;99.90
52415;DHT22;38340;52.964;6.086;2023-07-31T04:12:13;15.90;99.90
52415;DHT22;38340;52.964;6.086;2023-07-31T04:14:39;15.90;99.90
52415;DHT22;38340;52.964;6.086;2023-07-31T04:17:05;15.90;99.90
52415;DHT22;38340;52.964;6.086;2023-07-31T04:19:30;16.00;99.90
52415;DHT22;38340;52.964;6.086;2023-07-31T04:21:56;16.00;99.90
52415;DHT22;38340;52.964;6.086;2023-07-31T04:24:22;16.00;99.90
52415;DHT22;38340;52.964;6.086;2023-07-31T04:26:50;16.00;99.90
52415;DHT22;38340;52.964;6.086;2023-07-31T04:29:16;16.00;99.90
52415;DHT22;38340;52.964;6.086;2023-07-31T04:31:42;16.00;99.90
52415;DHT22;38340;52.964;6.086;2023-07-31T04:34:07;16.00;99.90
52415;DHT22;38340;52.964;6.086;2023-07-31T04:36:34;16.00;99.90
52415;DHT22;38340;52.964;6.086;2023-07-31T04:39:00;16.00;99.90
52415;DHT22;38340;52.964;6.086;2023-07-31T04:41:26;16.00;99.90
52415;DHT22;38340;52.964;6.086;2023-07-31T04:43:51;16.10;99.90
52415;DHT22;38340;52.964;6.086;2023-07-31T04:46:17;16.10;99.90
52415;DHT22;38340;52.964;6.086;2023-07-31T04:48:43;16.10;99.90
52415;DHT22;38340;52.964;6.086;2023-07-31T04:51:09;16.10;99.90
52415;DHT22;38340;52.964;6.086;2023-07-31T04:53:35;16.10;99.90
52415;DHT22;38340;52.964;6.086;2023-07-31T04:56:01;16.20;99.90
52415;DHT22;38340;52.964;6.086;2023-07-31T04:58:26;16.20;99.90
52415;DHT22;38340;52.964;6.086;2023-07-31T05:00:52;16.20;99.90
52415;DHT22;38340;52.964;6.086;2023-07-31T05:03:18;16.30;99.90
52415;DHT22;38340;52.964;6.086;2023-07-31T05:05:43;16.30;99.90
52415;DHT22;38340;52.964;6.086;2023-07-31T05:08:09;16.20;99.90
52415;DHT22;38340;52.964;6.086;2023-07-31T05:10:35;16.30;99.90
52415;DHT22;38340;52.964;6.086;2023-07-31T05:13:00;16.40;99.90
52415;DHT22;38340;52.964;6.086;2023-07-31T05:15:26;16.40;99.90
52415;DHT22;38340;52.964;6.086;2023-07-31T05:17:52;16.50;99.90
52415;DHT22;38340;52.964;6.086;2023-07-31T05:20:18;16.50;99.90
52415;DHT22;38340;52.964;6.086;2023-07-31T05:22:43;16.50;99.90
52415;DHT22;38340;52.964;6.086;2023-07-31T05:25:09;16.50;99.90
52415;DHT22;38340;52.964;6.086;2023-07-31T05:27:35;16.50;99.90
52415;DHT22;38340;52.964;6.086;2023-07-31T05:30:00;16.60;99.90
52415;DHT22;38340;52.964;6.086;2023-07-31T05:32:26;16.60;99.90
52415;DHT22;38340;52.964;6.086;2023-07-31T05:34:52;16.60;99.90
52415;DHT22;38340;52.964;6.086;2023-07-31T05:37:18;16.60;99.90
52415;DHT22;38340;52.964;6.086;2023-07-31T05:39:44;16.60;99.90
52415;DHT22;38340;52.964;6.086;2023-07-31T05:42:10;16.60;99.90
52415;DHT22;38340;52.964;6.086;2023-07-31T05:44:36;16.70;99.90
52415;DHT22;38340;52.964;6.086;2023-07-31T05:47:01;16.70;99.90
52415;DHT22;38340;52.964;6.086;2023-07-31T05:49:27;16.80;99.90
52415;DHT22;38340;52.964;6.086;2023-07-31T05:51:53;16.80;99.90
52415;DHT22;38340;52.964;6.086;2023-07-31T05:54:18;16.90;99.90
52415;DHT22;38340;52.964;6.086;2023-07-31T05:56:44;16.90;99.90
52415;DHT22;38340;52.964;6.086;2023-07-31T05:59:12;16.90;99.90
52415;DHT22;38340;52.964;6.086;2023-07-31T06:01:38;17.00;99.90
52415;DHT22;38340;52.964;6.086;2023-07-31T06:04:04;17.00;99.90
52415;DHT22;38340;52.964;6.086;2023-07-31T06:06:30;17.00;99.90
52415;DHT22;38340;52.964;6.086;2023-07-31T06:08:56;17.10;99.90
52415;DHT22;38340;52.964;6.086;2023-07-31T06:11:22;17.10;99.90
52415;DHT22;38340;52.964;6.086;2023-07-31T06:13:48;17.10;99.90
52415;DHT22;38340;52.964;6.086;2023-07-31T06:16:15;17.10;99.90
52415;DHT22;38340;52.964;6.086;2023-07-31T06:18:41;17.10;99.90
52415;DHT22;38340;52.964;6.086;2023-07-31T06:21:08;17.20;99.90
52415;DHT22;38340;52.964;6.086;2023-07-31T06:23:34;17.20;99.90
52415;DHT22;38340;52.964;6.086;2023-07-31T06:25:59;17.30;99.90
52415;DHT22;38340;52.964;6.086;2023-07-31T06:28:28;17.40;99.90
52415;DHT22;38340;52.964;6.086;2023-07-31T06:30:55;17.30;99.90
52415;DHT22;38340;52.964;6.086;2023-07-31T06:33:20;17.50;99.90
52415;DHT22;38340;52.964;6.086;2023-07-31T06:35:46;17.50;99.90
52415;DHT22;38340;52.964;6.086;2023-07-31T06:38:12;17.60;99.90
52415;DHT22;38340;52.964;6.086;2023-07-31T06:40:37;17.50;99.90
52415;DHT22;38340;52.964;6.086;2023-07-31T06:43:03;17.60;99.90
52415;DHT22;38340;52.964;6.086;2023-07-31T06:45:36;17.50;99.90
52415;DHT22;38340;52.964;6.086;2023-07-31T06:48:02;17.50;99.90
52415;DHT22;38340;52.964;6.086;2023-07-31T06:50:32;17.50;99.90
52415;DHT22;38340;52.964;6.086;2023-07-31T06:52:58;17.40;99.90
52415;DHT22;38340;52.964;6.086;2023-07-31T06:55:24;17.50;99.90
52415;DHT22;38340;52.964;6.086;2023-07-31T06:57:53;17.40;99.90
52415;DHT22;38340;52.964;6.086;2023-07-31T07:00:19;17.40;99.90
52415;DHT22;38340;52.964;6.086;2023-07-31T07:02:46;17.50;99.90
52415;DHT22;38340;52.964;6.086;2023-07-31T07:05:15;17.40;99.90
52415;DHT22;38340;52.964;6.086;2023-07-31T07:07:41;17.40;99.90
52415;DHT22;38340;52.964;6.086;2023-07-31T07:10:07;17.30;99.90
52415;DHT22;38340;52.964;6.086;2023-07-31T07:12:34;17.20;99.90
52415;DHT22;38340;52.964;6.086;2023-07-31T07:15:00;17.20;99.90
52415;DHT22;38340;52.964;6.086;2023-07-31T07:17:28;17.10;99.90
52415;DHT22;38340;52.964;6.086;2023-07-31T07:19:55;17.20;99.90
52415;DHT22;38340;52.964;6.086;2023-07-31T07:22:21;17.10;99.90
52415;DHT22;38340;52.964;6.086;2023-07-31T07:24:47;17.10;99.90
52415;DHT22;38340;52.964;6.086;2023-07-31T07:27:12;17.10;99.90
52415;DHT22;38340;52.964;6.086;2023-07-31T07:29:38;17.10;99.90
52415;DHT22;38340;52.964;6.086;2023-07-31T07:32:04;17.10;99.90
52415;DHT22;38340;52.964;6.086;2023-07-31T07:34:30;17.10;99.90
52415;DHT22;38340;52.964;6.086;2023-07-31T07:36:56;17.10;99.90
52415;DHT22;38340;52.964;6.086;2023-07-31T07:39:21;17.10;99.90
52415;DHT22;38340;52.964;6.086;2023-07-31T07:41:47;17.10;99.90
52415;DHT22;38340;52.964;6.086;2023-07-31T07:44:14;17.00;99.90
52415;DHT22;38340;52.964;6.086;2023-07-31T07:46:40;17.00;99.90
52415;DHT22;38340;52.964;6.086;2023-07-31T07:49:06;17.00;99.90
52415;DHT22;38340;52.964;6.086;2023-07-31T07:51:32;17.00;99.90
52415;DHT22;38340;52.964;6.086;2023-07-31T07:53:58;17.10;99.90
52415;DHT22;38340;52.964;6.086;2023-07-31T07:56:25;17.20;99.90
52415;DHT22;38340;52.964;6.086;2023-07-31T07:58:51;17.10;99.90
52415;DHT22;38340;52.964;6.086;2023-07-31T08:01:17;17.10;99.90
52415;DHT22;38340;52.964;6.086;2023-07-31T08:03:43;17.00;99.90
52415;DHT22;38340;52.964;6.086;2023-07-31T08:06:09;17.20;99.90
52415;DHT22;38340;52.964;6.086;2023-07-31T08:08:38;17.20;99.90
52415;DHT22;38340;52.964;6.086;2023-07-31T08:11:04;17.40;99.90
52415;DHT22;38340;52.964;6.086;2023-07-31T08:13:30;17.40;99.90
52415;DHT22;38340;52.964;6.086;2023-07-31T08:15:55;17.50;99.90
52415;DHT22;38340;52.964;6.086;2023-07-31T08:18:21;17.50;99.90
52415;DHT22;38340;52.964;6.086;2023-07-31T08:20:47;17.40;99.90
52415;DHT22;38340;52.964;6.086;2023-07-31T08:23:13;17.40;99.90
52415;DHT22;38340;52.964;6.086;2023-07-31T08:25:39;17.40;99.90
52415;DHT22;38340;52.964;6.086;2023-07-31T08:28:05;17.50;99.90
52415;DHT22;38340;52.964;6.086;2023-07-31T08:30:31;17.60;99.90
52415;DHT22;38340;52.964;6.086;2023-07-31T08:32:57;17.60;99.90
52415;DHT22;38340;52.964;6.086;2023-07-31T08:35:25;17.60;99.90
52415;DHT22;38340;52.964;6.086;2023-07-31T08:37:51;17.70;99.90
52415;DHT22;38340;52.964;6.086;2023-07-31T08:40:17;17.80;99.90
52415;DHT22;38340;52.964;6.086;2023-07-31T08:42:47;17.80;99.90
52415;DHT22;38340;52.964;6.086;2023-07-31T08:45:19;17.80;99.90
52415;DHT22;38340;52.964;6.086;2023-07-31T08:47:47;17.80;99.90
52415;DHT22;38340;52.964;6.086;2023-07-31T08:50:14;17.80;99.90
52415;DHT22;38340;52.964;6.086;2023-07-31T08:52:40;17.80;99.90
52415;DHT22;38340;52.964;6.086;2023-07-31T08:55:07;17.70;99.90
52415;DHT22;38340;52.964;6.086;2023-07-31T08:57:35;17.80;99.90
52415;DHT22;38340;52.964;6.086;2023-07-31T09:00:03;17.90;99.90
52415;DHT22;38340;52.964;6.086;2023-07-31T09:02:38;17.90;99.90
52415;DHT22;38340;52.964;6.086;2023-07-31T09:05:07;17.90;99.90
52415;DHT22;38340;52.964;6.086;2023-07-31T09:07:34;17.80;99.90
52415;DHT22;38340;52.964;6.086;2023-07-31T09:10:02;17.80;99.90
52415;DHT22;38340;52.964;6.086;2023-07-31T09:12:28;17.80;99.90
52415;DHT22;38340;52.964;6.086;2023-07-31T09:14:54;17.90;99.90
52415;DHT22;38340;52.964;6.086;2023-07-31T09:17:33;17.80;99.90
52415;DHT22;38340;52.964;6.086;2023-07-31T09:20:18;17.80;99.90
52415;DHT22;38340;52.964;6.086;2023-07-31T09:22:45;17.90;99.90
52415;DHT22;38340;52.964;6.086;2023-07-31T09:30:14;18.10;99.90
52415;DHT22;38340;52.964;6.086;2023-07-31T09:32:39;18.20;99.90
52415;DHT22;38340;52.964;6.086;2023-07-31T09:35:28;18.30;99.90
52415;DHT22;38340;52.964;6.086;2023-07-31T09:37:57;18.20;99.90
52415;DHT22;38340;52.964;6.086;2023-07-31T09:40:41;18.20;99.90
52415;DHT22;38340;52.964;6.086;2023-07-31T09:43:10;18.30;99.90
52415;DHT22;38340;52.964;6.086;2023-07-31T09:45:38;18.40;99.90
52415;DHT22;38340;52.964;6.086;2023-07-31T09:48:12;18.40;99.90
52415;DHT22;38340;52.964;6.086;2023-07-31T09:50:41;18.60;99.90
52415;DHT22;38340;52.964;6.086;2023-07-31T09:53:08;18.60;99.90
52415;DHT22;38340;52.964;6.086;2023-07-31T09:55:35;18.60;99.90
52415;DHT22;38340;52.964;6.086;2023-07-31T09:58:08;18.60;99.90
52415;DHT22;38340;52.964;6.086;2023-07-31T10:00:35;18.80;99.90
52415;DHT22;38340;52.964;6.086;2023-07-31T10:03:04;18.80;99.90
52415;DHT22;38340;52.964;6.086;2023-07-31T10:05:37;18.90;99.90
52415;DHT22;38340;52.964;6.086;2023-07-31T10:08:06;18.90;99.90
52415;DHT22;38340;52.964;6.086;2023-07-31T10:10:32;19.00;99.90
52415;DHT22;38340;52.964;6.086;2023-07-31T10:13:01;19.00;99.90
52415;DHT22;38340;52.964;6.086;2023-07-31T10:15:27;19.00;99.90
52415;DHT22;38340;52.964;6.086;2023-07-31T10:17:54;19.00;99.90
52415;DHT22;38340;52.964;6.086;2023-07-31T10:20:20;19.10;99.90
52415;DHT22;38340;52.964;6.086;2023-07-31T10:22:46;19.00;99.90
52415;DHT22;38340;52.964;6.086;2023-07-31T10:25:12;19.00;99.90
52415;DHT22;38340;52.964;6.086;2023-07-31T10:27:39;19.00;99.90
52415;DHT22;38340;52.964;6.086;2023-07-31T10:30:11;19.00;99.90
52415;DHT22;38340;52.964;6.086;2023-07-31T10:32:39;19.00;99.90
52415;DHT22;38340;52.964;6.086;2023-07-31T10:35:06;19.10;99.90
52415;DHT22;38340;52.964;6.086;2023-07-31T10:37:40;19.10;99.90
52415;DHT22;38340;52.964;6.086;2023-07-31T10:40:11;19.20;99.90
52415;DHT22;38340;52.964;6.086;2023-07-31T10:42:54;19.30;99.90
52415;DHT22;38340;52.964;6.086;2023-07-31T10:45:34;19.70;99.90
52415;DHT22;38340;52.964;6.086;2023-07-31T10:48:03;20.10;99.90
52415;DHT22;38340;52.964;6.086;2023-07-31T10:50:30;20.10;99.90
52415;DHT22;38340;52.964;6.086;2023-07-31T10:53:00;20.30;99.90
52415;DHT22;38340;52.964;6.086;2023-07-31T10:55:38;20.10;99.90
52415;DHT22;38340;52.964;6.086;2023-07-31T10:58:12;19.90;99.90
52415;DHT22;38340;52.964;6.086;2023-07-31T11:00:39;19.70;99.90
52415;DHT22;38340;52.964;6.086;2023-07-31T11:03:09;19.30;99.90
52415;DHT22;38340;52.964;6.086;2023-07-31T11:05:49;19.10;99.90
52415;DHT22;38340;52.964;6.086;2023-07-31T11:08:24;18.90;99.90
52415;DHT22;38340;52.964;6.086;2023-07-31T11:11:11;18.80;99.90
52415;DHT22;38340;52.964;6.086;2023-07-31T11:16:15;19.10;99.90
52415;DHT22;38340;52.964;6.086;2023-07-31T11:18:45;19.20;99.90
52415;DHT22;38340;52.964;6.086;2023-07-31T11:21:17;19.20;99.90
52415;DHT22;38340;52.964;6.086;2023-07-31T11:23:53;19.40;99.90
52415;DHT22;38340;52.964;6.086;2023-07-31T11:26:21;19.50;99.90
52415;DHT22;38340;52.964;6.086;2023-07-31T11:28:49;19.60;99.90
52415;DHT22;38340;52.964;6.086;2023-07-31T11:31:16;19.70;99.90
52415;DHT22;38340;52.964;6.086;2023-07-31T11:33:42;19.80;99.90
52415;DHT22;38340;52.964;6.086;2023-07-31T11:36:18;19.80;99.90
52415;DHT22;38340;52.964;6.086;2023-07-31T11:38:44;19.80;99.90
52415;DHT22;38340;52.964;6.086;2023-07-31T11:41:10;19.90;99.90
52415;DHT22;38340;52.964;6.086;2023-07-31T11:43:38;19.80;99.90
52415;DHT22;38340;52.964;6.086;2023-07-31T11:46:04;19.80;99.90
52415;DHT22;38340;52.964;6.086;2023-07-31T11:48:36;19.70;99.90
52415;DHT22;38340;52.964;6.086;2023-07-31T11:51:04;19.70;99.90
52415;DHT22;38340;52.964;6.086;2023-07-31T11:53:47;19.50;99.90
52415;DHT22;38340;52.964;6.086;2023-07-31T11:56:18;19.50;99.90
52415;DHT22;38340;52.964;6.086;2023-07-31T11:58:46;19.60;99.90
52415;DHT22;38340;52.964;6.086;2023-07-31T12:01:15;19.70;99.90
52415;DHT22;38340;52.964;6.086;2023-07-31T12:03:41;19.60;99.90
52415;DHT22;38340;52.964;6.086;2023-07-31T12:06:08;19.40;99.90
52415;DHT22;38340;52.964;6.086;2023-07-31T12:08:34;19.40;99.90
52415;DHT22;38340;52.964;6.086;2023-07-31T12:11:05;19.30;99.90
52415;DHT22;38340;52.964;6.086;2023-07-31T12:13:32;19.30;99.90
52415;DHT22;38340;52.964;6.086;2023-07-31T12:15:59;19.20;99.90
52415;DHT22;38340;52.964;6.086;2023-07-31T12:18:28;19.20;99.90
52415;DHT22;38340;52.964;6.086;2023-07-31T12:20:55;19.10;99.90
52415;DHT22;38340;52.964;6.086;2023-07-31T12:23:32;18.90;99.90
52415;DHT22;38340;52.964;6.086;2023-07-31T12:28:27;19.00;99.90
52415;DHT22;38340;52.964;6.086;2023-07-31T12:31:00;19.10;99.90
52415;DHT22;38340;52.964;6.086;2023-07-31T12:33:34;19.20;99.90
52415;DHT22;38340;52.964;6.086;2023-07-31T12:36:08;19.50;99.90
52415;DHT22;38340;52.964;6.086;2023-07-31T12:38:34;19.60;99.90
52415;DHT22;38340;52.964;6.086;2023-07-31T12:40:59;19.90;99.90
52415;DHT22;38340;52.964;6.086;2023-07-31T12:43:25;20.00;99.90
52415;DHT22;38340;52.964;6.086;2023-07-31T12:45:51;20.00;99.90
52415;DHT22;38340;52.964;6.086;2023-07-31T12:48:17;20.00;99.90
52415;DHT22;38340;52.964;6.086;2023-07-31T12:50:43;20.00;99.90
52415;DHT22;38340;52.964;6.086;2023-07-31T12:53:08;20.20;99.90
52415;DHT22;38340;52.964;6.086;2023-07-31T12:55:34;20.20;99.90
52415;DHT22;38340;52.964;6.086;2023-07-31T12:58:02;20.20;99.90
52415;DHT22;38340;52.964;6.086;2023-07-31T13:00:28;20.20;99.90
52415;DHT22;38340;52.964;6.086;2023-07-31T13:02:54;20.30;99.90
52415;DHT22;38340;52.964;6.086;2023-07-31T13:05:20;20.30;99.90
52415;DHT22;38340;52.964;6.086;2023-07-31T13:07:47;20.20;99.90
52415;DHT22;38340;52.964;6.086;2023-07-31T13:10:13;20.20;99.90
52415;DHT22;38340;52.964;6.086;2023-07-31T13:12:38;20.30;99.90
52415;DHT22;38340;52.964;6.086;2023-07-31T13:15:07;20.30;99.90
52415;DHT22;38340;52.964;6.086;2023-07-31T13:17:33;20.30;99.90
52415;DHT22;38340;52.964;6.086;2023-07-31T13:20:00;20.30;99.90
52415;DHT22;38340;52.964;6.086;2023-07-31T13:22:25;20.30;99.90
52415;DHT22;38340;52.964;6.086;2023-07-31T13:24:51;20.20;99.90
52415;DHT22;38340;52.964;6.086;2023-07-31T13:27:17;20.10;99.90
52415;DHT22;38340;52.964;6.086;2023-07-31T13:29:46;20.10;99.90
52415;DHT22;38340;52.964;6.086;2023-07-31T13:32:11;20.20;99.90
52415;DHT22;38340;52.964;6.086;2023-07-31T13:34:37;20.30;99.90
52415;DHT22;38340;52.964;6.086;2023-07-31T13:37:03;20.20;99.90
52415;DHT22;38340;52.964;6.086;2023-07-31T13:39:31;20.30;99.90
52415;DHT22;38340;52.964;6.086;2023-07-31T13:41:58;20.20;99.90
52415;DHT22;38340;52.964;6.086;2023-07-31T13:44:23;20.20;99.90
52415;DHT22;38340;52.964;6.086;2023-07-31T13:46:49;19.90;99.90
52415;DHT22;38340;52.964;6.086;2023-07-31T13:49:15;19.90;99.90
52415;DHT22;38340;52.964;6.086;2023-07-31T13:51:40;20.00;99.90
52415;DHT22;38340;52.964;6.086;2023-07-31T13:54:06;20.00;99.90
52415;DHT22;38340;52.964;6.086;2023-07-31T13:56:32;20.20;99.90
52415;DHT22;38340;52.964;6.086;2023-07-31T13:58:58;20.30;99.90
52415;DHT22;38340;52.964;6.086;2023-07-31T14:01:24;20.20;99.90
52415;DHT22;38340;52.964;6.086;2023-07-31T14:03:49;20.40;99.90
52415;DHT22;38340;52.964;6.086;2023-07-31T14:06:15;20.30;99.90
52415;DHT22;38340;52.964;6.086;2023-07-31T14:08:41;20.30;99.90
52415;DHT22;38340;52.964;6.086;2023-07-31T14:11:07;20.30;99.90
52415;DHT22;38340;52.964;6.086;2023-07-31T14:13:32;20.30;99.90
52415;DHT22;38340;52.964;6.086;2023-07-31T14:15:58;20.30;99.90
52415;DHT22;38340;52.964;6.086;2023-07-31T14:18:24;20.30;99.90
52415;DHT22;38340;52.964;6.086;2023-07-31T14:20:49;20.30;99.90
52415;DHT22;38340;52.964;6.086;2023-07-31T14:23:15;20.10;99.90
52415;DHT22;38340;52.964;6.086;2023-07-31T14:25:41;20.20;99.90
52415;DHT22;38340;52.964;6.086;2023-07-31T14:28:07;20.20;99.90
52415;DHT22;38340;52.964;6.086;2023-07-31T14:30:32;20.10;99.90
52415;DHT22;38340;52.964;6.086;2023-07-31T14:32:58;20.00;99.90
52415;DHT22;38340;52.964;6.086;2023-07-31T14:35:26;20.00;99.90
52415;DHT22;38340;52.964;6.086;2023-07-31T14:37:51;20.00;99.90
52415;DHT22;38340;52.964;6.086;2023-07-31T14:40:17;20.00;99.90
52415;DHT22;38340;52.964;6.086;2023-07-31T14:42:43;19.90;99.90
52415;DHT22;38340;52.964;6.086;2023-07-31T14:45:09;20.00;99.90
52415;DHT22;38340;52.964;6.086;2023-07-31T14:47:36;19.80;99.90
52415;DHT22;38340;52.964;6.086;2023-07-31T14:50:02;19.80;99.90
52415;DHT22;38340;52.964;6.086;2023-07-31T14:52:28;19.90;99.90
52415;DHT22;38340;52.964;6.086;2023-07-31T14:54:54;19.80;99.90
52415;DHT22;38340;52.964;6.086;2023-07-31T14:57:20;19.70;99.90
52415;DHT22;38340;52.964;6.086;2023-07-31T14:59:46;19.70;99.90
52415;DHT22;38340;52.964;6.086;2023-07-31T15:02:12;19.70;99.90
52415;DHT22;38340;52.964;6.086;2023-07-31T15:04:38;19.60;99.90
52415;DHT22;38340;52.964;6.086;2023-07-31T15:07:04;19.60;99.90
52415;DHT22;38340;52.964;6.086;2023-07-31T15:09:30;19.50;99.90
52415;DHT22;38340;52.964;6.086;2023-07-31T15:11:56;19.50;99.90
52415;DHT22;38340;52.964;6.086;2023-07-31T15:14:23;19.60;99.90
52415;DHT22;38340;52.964;6.086;2023-07-31T15:16:48;19.60;99.90
52415;DHT22;38340;52.964;6.086;2023-07-31T15:19:14;19.60;99.90
52415;DHT22;38340;52.964;6.086;2023-07-31T15:21:40;19.70;99.90
52415;DHT22;38340;52.964;6.086;2023-07-31T15:24:06;19.70;99.90
52415;DHT22;38340;52.964;6.086;2023-07-31T15:26:32;19.80;99.90
52415;DHT22;38340;52.964;6.086;2023-07-31T15:29:07;19.90;99.90
52415;DHT22;38340;52.964;6.086;2023-07-31T15:31:40;19.90;99.90
52415;DHT22;38340;52.964;6.086;2023-07-31T15:34:06;19.90;99.90
52415;DHT22;38340;52.964;6.086;2023-07-31T15:36:32;19.80;99.90
52415;DHT22;38340;52.964;6.086;2023-07-31T15:38:58;19.80;99.90
52415;DHT22;38340;52.964;6.086;2023-07-31T15:41:23;19.90;99.90
52415;DHT22;38340;52.964;6.086;2023-07-31T15:43:51;19.90;99.90
52415;DHT22;38340;52.964;6.086;2023-07-31T15:46:17;19.80;99.90